sensor_id;sensor_type;location;lat;lon;timestamp;temperature;humidity
24146;DHT22;12308;50.948;4.706;2023-03-31T00:00:44;13.00;99.90
24146;DHT22;12308;50.948;4.706;2023-03-31T00:03:12;13.00;99.90
24146;DHT22;12308;50.948;4.706;2023-03-31T00:05:38;13.00;99.90
24146;DHT22;12308;50.948;4.706;2023-03-31T00:08:04;13.10;99.90
24146;DHT22;12308;50.948;4.706;2023-03-31T00:10:31;13.10;99.90
24146;DHT22;12308;50.948;4.706;2023-03-31T00:12:59;13.10;99.90
24146;DHT22;12308;50.948;4.706;2023-03-31T00:15:25;13.10;99.90
24146;DHT22;12308;50.948;4.706;2023-03-31T00:17:51;13.10;99.90
24146;DHT22;12308;50.948;4.706;2023-03-31T00:20:17;13.00;99.90
24146;DHT22;12308;50.948;4.706;2023-03-31T00:22:43;13.10;99.90
24146;DHT22;12308;50.948;4.706;2023-03-31T00:25:12;13.20;99.90
24146;DHT22;12308;50.948;4.706;2023-03-31T00:27:43;13.20;99.90
24146;DHT22;12308;50.948;4.706;2023-03-31T00:30:10;13.10;99.90
24146;DHT22;12308;50.948;4.706;2023-03-31T00:32:36;13.20;99.90
24146;DHT22;12308;50.948;4.706;2023-03-31T00:35:02;13.10;99.90
24146;DHT22;12308;50.948;4.706;2023-03-31T00:37:28;13.10;99.90
24146;DHT22;12308;50.948;4.706;2023-03-31T00:39:55;13.00;99.90
24146;DHT22;12308;50.948;4.706;2023-03-31T00:42:21;13.00;99.90
24146;DHT22;12308;50.948;4.706;2023-03-31T00:47:42;13.10;99.90
24146;DHT22;12308;50.948;4.706;2023-03-31T00:50:15;13.00;99.90
24146;DHT22;12308;50.948;4.706;2023-03-31T00:52:44;13.10;99.90
24146;DHT22;12308;50.948;4.706;2023-03-31T00:55:15;13.10;99.90
24146;DHT22;12308;50.948;4.706;2023-03-31T00:57:42;13.10;99.90
24146;DHT22;12308;50.948;4.706;2023-03-31T01:00:11;13.20;99.90
24146;DHT22;12308;50.948;4.706;2023-03-31T01:02:47;13.20;99.90
24146;DHT22;12308;50.948;4.706;2023-03-31T01:05:23;13.00;99.90
24146;DHT22;12308;50.948;4.706;2023-03-31T01:07:51;12.80;99.90
24146;DHT22;12308;50.948;4.706;2023-03-31T01:10:18;12.70;99.90
24146;DHT22;12308;50.948;4.706;2023-03-31T01:12:48;12.80;99.90
24146;DHT22;12308;50.948;4.706;2023-03-31T01:15:14;12.90;99.90
24146;DHT22;12308;50.948;4.706;2023-03-31T01:17:41;13.00;99.90
24146;DHT22;12308;50.948;4.706;2023-03-31T01:20:23;12.80;99.90
24146;DHT22;12308;50.948;4.706;2023-03-31T01:42:53;12.80;99.90
24146;DHT22;12308;50.948;4.706;2023-03-31T01:48:12;12.60;99.90
24146;DHT22;12308;50.948;4.706;2023-03-31T01:50:55;12.50;99.90
24146;DHT22;12308;50.948;4.706;2023-03-31T01:53:32;12.50;99.90
24146;DHT22;12308;50.948;4.706;2023-03-31T01:59:26;12.50;99.90
24146;DHT22;12308;50.948;4.706;2023-03-31T02:01:51;12.50;99.90
24146;DHT22;12308;50.948;4.706;2023-03-31T02:04:42;12.50;99.90
24146;DHT22;12308;50.948;4.706;2023-03-31T02:07:16;12.50;99.90
24146;DHT22;12308;50.948;4.706;2023-03-31T02:09:46;12.60;99.90
24146;DHT22;12308;50.948;4.706;2023-03-31T02:12:14;12.60;99.90
24146;DHT22;12308;50.948;4.706;2023-03-31T02:14:44;12.50;99.90
24146;DHT22;12308;50.948;4.706;2023-03-31T02:17:15;12.50;99.90
24146;DHT22;12308;50.948;4.706;2023-03-31T02:19:44;12.60;99.90
24146;DHT22;12308;50.948;4.706;2023-03-31T02:22:14;12.50;99.90
24146;DHT22;12308;50.948;4.706;2023-03-31T02:24:41;12.40;99.90
24146;DHT22;12308;50.948;4.706;2023-03-31T02:27:24;12.30;99.90
24146;DHT22;12308;50.948;4.706;2023-03-31T02:29:51;12.20;99.90
24146;DHT22;12308;50.948;4.706;2023-03-31T02:34:46;12.20;99.90
24146;DHT22;12308;50.948;4.706;2023-03-31T02:37:12;12.30;99.90
24146;DHT22;12308;50.948;4.706;2023-03-31T02:39:41;12.30;99.90
24146;DHT22;12308;50.948;4.706;2023-03-31T02:42:08;12.30;99.90
24146;DHT22;12308;50.948;4.706;2023-03-31T02:44:35;12.10;99.90
24146;DHT22;12308;50.948;4.706;2023-03-31T02:47:07;12.10;99.90
24146;DHT22;12308;50.948;4.706;2023-03-31T02:49:34;12.20;99.90
24146;DHT22;12308;50.948;4.706;2023-03-31T02:52:15;12.10;99.90
24146;DHT22;12308;50.948;4.706;2023-03-31T02:55:26;12.10;99.90
24146;DHT22;12308;50.948;4.706;2023-03-31T03:10:57;12.10;99.90
24146;DHT22;12308;50.948;4.706;2023-03-31T03:16:27;12.20;99.90
24146;DHT22;12308;50.948;4.706;2023-03-31T03:18:57;12.30;99.90
24146;DHT22;12308;50.948;4.706;2023-03-31T03:21:23;12.20;99.90
24146;DHT22;12308;50.948;4.706;2023-03-31T03:23:48;12.20;99.90
24146;DHT22;12308;50.948;4.706;2023-03-31T03:26:14;12.20;99.90
24146;DHT22;12308;50.948;4.706;2023-03-31T03:28:46;12.10;99.90
24146;DHT22;12308;50.948;4.706;2023-03-31T03:31:12;12.40;99.90
24146;DHT22;12308;50.948;4.706;2023-03-31T03:33:38;12.50;99.90
24146;DHT22;12308;50.948;4.706;2023-03-31T03:36:04;12.60;99.90
24146;DHT22;12308;50.948;4.706;2023-03-31T03:38:29;12.50;99.90
24146;DHT22;12308;50.948;4.706;2023-03-31T03:40:55;12.40;99.90
24146;DHT22;12308;50.948;4.706;2023-03-31T03:43:21;12.30;99.90
24146;DHT22;12308;50.948;4.706;2023-03-31T03:45:48;12.10;99.90
24146;DHT22;12308;50.948;4.706;2023-03-31T03:48:13;12.10;99.90
24146;DHT22;12308;50.948;4.706;2023-03-31T03:50:39;12.10;99.90
24146;DHT22;12308;50.948;4.706;2023-03-31T03:53:06;12.10;99.90
24146;DHT22;12308;50.948;4.706;2023-03-31T03:55:32;12.20;99.90
24146;DHT22;12308;50.948;4.706;2023-03-31T03:57:58;12.10;99.90
24146;DHT22;12308;50.948;4.706;2023-03-31T04:00:24;12.10;99.90
24146;DHT22;12308;50.948;4.706;2023-03-31T04:02:50;12.20;99.90
24146;DHT22;12308;50.948;4.706;2023-03-31T04:05:16;12.40;99.90
24146;DHT22;12308;50.948;4.706;2023-03-31T04:07:41;12.30;99.90
24146;DHT22;12308;50.948;4.706;2023-03-31T04:10:07;12.40;99.90
24146;DHT22;12308;50.948;4.706;2023-03-31T04:12:36;12.20;99.90
24146;DHT22;12308;50.948;4.706;2023-03-31T04:15:02;11.90;99.90
24146;DHT22;12308;50.948;4.706;2023-03-31T04:17:28;11.70;99.90
24146;DHT22;12308;50.948;4.706;2023-03-31T04:20:01;11.70;99.90
24146;DHT22;12308;50.948;4.706;2023-03-31T04:22:27;11.70;99.90
24146;DHT22;12308;50.948;4.706;2023-03-31T04:24:54;11.90;99.90
24146;DHT22;12308;50.948;4.706;2023-03-31T04:27:23;11.90;99.90
24146;DHT22;12308;50.948;4.706;2023-03-31T04:29:52;11.80;99.90
24146;DHT22;12308;50.948;4.706;2023-03-31T04:32:21;11.80;99.90
24146;DHT22;12308;50.948;4.706;2023-03-31T04:34:48;11.90;99.90
24146;DHT22;12308;50.948;4.706;2023-03-31T04:37:15;12.00;99.90
24146;DHT22;12308;50.948;4.706;2023-03-31T04:39:41;11.90;99.90
24146;DHT22;12308;50.948;4.706;2023-03-31T04:42:10;11.80;99.90
24146;DHT22;12308;50.948;4.706;2023-03-31T04:44:36;11.70;99.90
24146;DHT22;12308;50.948;4.706;2023-03-31T04:47:02;11.70;99.90
24146;DHT22;12308;50.948;4.706;2023-03-31T04:49:28;11.70;99.90
24146;DHT22;12308;50.948;4.706;2023-03-31T04:51:53;11.80;99.90
24146;DHT22;12308;50.948;4.706;2023-03-31T04:54:19;12.00;99.90
24146;DHT22;12308;50.948;4.706;2023-03-31T04:56:45;12.00;99.90
24146;DHT22;12308;50.948;4.706;2023-03-31T04:59:11;12.00;99.90
24146;DHT22;12308;50.948;4.706;2023-03-31T05:01:36;12.00;99.90
24146;DHT22;12308;50.948;4.706;2023-03-31T05:04:03;12.00;99.90
24146;DHT22;12308;50.948;4.706;2023-03-31T05:06:29;12.00;99.90
24146;DHT22;12308;50.948;4.706;2023-03-31T05:08:55;11.90;99.90
24146;DHT22;12308;50.948;4.706;2023-03-31T05:11:21;11.90;99.90
24146;DHT22;12308;50.948;4.706;2023-03-31T05:13:47;11.90;99.90
24146;DHT22;12308;50.948;4.706;2023-03-31T05:16:13;12.00;99.90
24146;DHT22;12308;50.948;4.706;2023-03-31T05:18:39;12.00;99.90
24146;DHT22;12308;50.948;4.706;2023-03-31T05:23:38;12.00;99.90
24146;DHT22;12308;50.948;4.706;2023-03-31T05:26:04;12.10;99.90
24146;DHT22;12308;50.948;4.706;2023-03-31T05:28:30;12.00;99.90
24146;DHT22;12308;50.948;4.706;2023-03-31T05:30:58;12.10;99.90
24146;DHT22;12308;50.948;4.706;2023-03-31T05:33:26;12.10;99.90
24146;DHT22;12308;50.948;4.706;2023-03-31T05:35:51;12.10;99.90
24146;DHT22;12308;50.948;4.706;2023-03-31T05:38:17;12.10;99.90
24146;DHT22;12308;50.948;4.706;2023-03-31T05:40:42;12.20;99.90
24146;DHT22;12308;50.948;4.706;2023-03-31T05:43:08;12.10;99.90
24146;DHT22;12308;50.948;4.706;2023-03-31T05:45:34;12.10;99.90
24146;DHT22;12308;50.948;4.706;2023-03-31T05:48:00;12.00;99.90
24146;DHT22;12308;50.948;4.706;2023-03-31T05:50:25;12.00;99.90
24146;DHT22;12308;50.948;4.706;2023-03-31T05:52:51;12.00;99.90
24146;DHT22;12308;50.948;4.706;2023-03-31T05:55:17;12.00;99.90
24146;DHT22;12308;50.948;4.706;2023-03-31T05:57:43;12.00;99.90
24146;DHT22;12308;50.948;4.706;2023-03-31T06:00:09;12.00;99.90
24146;DHT22;12308;50.948;4.706;2023-03-31T06:02:36;12.00;99.90
24146;DHT22;12308;50.948;4.706;2023-03-31T06:05:02;12.20;99.90
24146;DHT22;12308;50.948;4.706;2023-03-31T06:07:28;12.10;99.90
24146;DHT22;12308;50.948;4.706;2023-03-31T06:09:54;12.10;99.90
24146;DHT22;12308;50.948;4.706;2023-03-31T06:12:19;12.00;99.90
24146;DHT22;12308;50.948;4.706;2023-03-31T06:14:45;12.00;99.90
24146;DHT22;12308;50.948;4.706;2023-03-31T06:17:11;12.10;99.90
24146;DHT22;12308;50.948;4.706;2023-03-31T06:19:36;12.10;99.90
24146;DHT22;12308;50.948;4.706;2023-03-31T06:22:02;12.20;99.90
24146;DHT22;12308;50.948;4.706;2023-03-31T06:24:28;12.20;99.90
24146;DHT22;12308;50.948;4.706;2023-03-31T06:26:53;12.20;99.90
24146;DHT22;12308;50.948;4.706;2023-03-31T06:29:19;12.20;99.90
24146;DHT22;12308;50.948;4.706;2023-03-31T06:31:46;12.30;99.90
24146;DHT22;12308;50.948;4.706;2023-03-31T06:34:12;12.30;99.90
24146;DHT22;12308;50.948;4.706;2023-03-31T06:36:37;12.30;99.90
24146;DHT22;12308;50.948;4.706;2023-03-31T06:39:03;12.40;99.90
24146;DHT22;12308;50.948;4.706;2023-03-31T06:41:29;12.40;99.90
24146;DHT22;12308;50.948;4.706;2023-03-31T06:43:54;12.40;99.90
24146;DHT22;12308;50.948;4.706;2023-03-31T06:46:20;12.50;99.90
24146;DHT22;12308;50.948;4.706;2023-03-31T06:48:46;12.50;99.90
24146;DHT22;12308;50.948;4.706;2023-03-31T06:51:12;12.50;99.90
24146;DHT22;12308;50.948;4.706;2023-03-31T06:53:37;12.60;99.90
24146;DHT22;12308;50.948;4.706;2023-03-31T06:56:04;12.70;99.90
24146;DHT22;12308;50.948;4.706;2023-03-31T06:58:30;12.70;99.90
24146;DHT22;12308;50.948;4.706;2023-03-31T07:00:56;12.80;99.90
24146;DHT22;12308;50.948;4.706;2023-03-31T07:03:22;12.70;99.90
24146;DHT22;12308;50.948;4.706;2023-03-31T07:05:50;12.70;99.90
24146;DHT22;12308;50.948;4.706;2023-03-31T07:08:17;12.80;99.90
24146;DHT22;12308;50.948;4.706;2023-03-31T07:10:43;12.80;99.90
24146;DHT22;12308;50.948;4.706;2023-03-31T07:13:14;12.90;99.90
24146;DHT22;12308;50.948;4.706;2023-03-31T07:15:40;13.10;99.90
24146;DHT22;12308;50.948;4.706;2023-03-31T07:18:07;13.30;99.90
24146;DHT22;12308;50.948;4.706;2023-03-31T07:20:33;13.30;99.90
24146;DHT22;12308;50.948;4.706;2023-03-31T07:22:59;13.40;99.90
24146;DHT22;12308;50.948;4.706;2023-03-31T07:25:27;13.50;99.90
24146;DHT22;12308;50.948;4.706;2023-03-31T07:27:53;13.40;99.90
24146;DHT22;12308;50.948;4.706;2023-03-31T07:30:19;13.50;99.90
24146;DHT22;12308;50.948;4.706;2023-03-31T07:32:47;13.50;99.90
24146;DHT22;12308;50.948;4.706;2023-03-31T07:35:13;13.50;99.90
24146;DHT22;12308;50.948;4.706;2023-03-31T07:37:41;13.60;99.90
24146;DHT22;12308;50.948;4.706;2023-03-31T07:40:09;13.50;99.90
24146;DHT22;12308;50.948;4.706;2023-03-31T07:42:36;13.60;99.90
24146;DHT22;12308;50.948;4.706;2023-03-31T07:45:03;13.50;99.90
24146;DHT22;12308;50.948;4.706;2023-03-31T07:47:31;13.50;99.90
24146;DHT22;12308;50.948;4.706;2023-03-31T07:49:57;13.50;99.90
24146;DHT22;12308;50.948;4.706;2023-03-31T07:52:22;13.50;99.90
24146;DHT22;12308;50.948;4.706;2023-03-31T07:54:49;13.60;99.90
24146;DHT22;12308;50.948;4.706;2023-03-31T07:57:15;13.60;99.90
24146;DHT22;12308;50.948;4.706;2023-03-31T07:59:44;13.50;99.90
24146;DHT22;12308;50.948;4.706;2023-03-31T08:02:12;13.30;99.90
24146;DHT22;12308;50.948;4.706;2023-03-31T08:04:39;13.20;99.90
24146;DHT22;12308;50.948;4.706;2023-03-31T08:07:07;13.10;99.90
24146;DHT22;12308;50.948;4.706;2023-03-31T08:09:33;13.10;99.90
24146;DHT22;12308;50.948;4.706;2023-03-31T08:11:59;13.20;99.90
24146;DHT22;12308;50.948;4.706;2023-03-31T08:14:25;13.20;99.90
24146;DHT22;12308;50.948;4.706;2023-03-31T08:16:50;13.20;99.90
24146;DHT22;12308;50.948;4.706;2023-03-31T08:19:17;13.30;99.90
24146;DHT22;12308;50.948;4.706;2023-03-31T08:21:43;13.20;99.90
24146;DHT22;12308;50.948;4.706;2023-03-31T08:24:09;13.20;99.90
24146;DHT22;12308;50.948;4.706;2023-03-31T08:26:34;13.20;99.90
24146;DHT22;12308;50.948;4.706;2023-03-31T08:29:00;13.20;99.90
24146;DHT22;12308;50.948;4.706;2023-03-31T08:31:26;13.30;99.90
24146;DHT22;12308;50.948;4.706;2023-03-31T08:33:53;13.40;99.90
24146;DHT22;12308;50.948;4.706;2023-03-31T08:36:19;13.50;99.90
24146;DHT22;12308;50.948;4.706;2023-03-31T08:38:46;13.50;99.90
24146;DHT22;12308;50.948;4.706;2023-03-31T08:41:44;13.50;99.90
24146;DHT22;12308;50.948;4.706;2023-03-31T08:44:25;13.60;99.90
24146;DHT22;12308;50.948;4.706;2023-03-31T08:46:54;13.80;99.90
24146;DHT22;12308;50.948;4.706;2023-03-31T08:49:22;13.80;99.90
24146;DHT22;12308;50.948;4.706;2023-03-31T08:52:14;13.80;99.90
24146;DHT22;12308;50.948;4.706;2023-03-31T08:54:45;13.90;99.90
24146;DHT22;12308;50.948;4.706;2023-03-31T08:57:27;14.00;99.90
24146;DHT22;12308;50.948;4.706;2023-03-31T08:59:54;14.00;99.90
24146;DHT22;12308;50.948;4.706;2023-03-31T09:02:42;14.00;99.90
24146;DHT22;12308;50.948;4.706;2023-03-31T09:10:34;13.70;99.90
24146;DHT22;12308;50.948;4.706;2023-03-31T09:18:10;14.10;99.90
24146;DHT22;12308;50.948;4.706;2023-03-31T09:20:39;14.10;99.90
24146;DHT22;12308;50.948;4.706;2023-03-31T09:23:31;14.20;99.90
24146;DHT22;12308;50.948;4.706;2023-03-31T09:25:58;14.20;99.90
24146;DHT22;12308;50.948;4.706;2023-03-31T09:28:34;14.20;99.90
24146;DHT22;12308;50.948;4.706;2023-03-31T09:31:12;14.20;99.90
24146;DHT22;12308;50.948;4.706;2023-03-31T09:33:44;14.30;99.90
24146;DHT22;12308;50.948;4.706;2023-03-31T09:36:16;14.10;99.90
24146;DHT22;12308;50.948;4.706;2023-03-31T09:38:44;14.10;99.90
24146;DHT22;12308;50.948;4.706;2023-03-31T09:41:10;14.20;99.90
24146;DHT22;12308;50.948;4.706;2023-03-31T09:43:39;14.20;99.90
24146;DHT22;12308;50.948;4.706;2023-03-31T09:49:15;14.30;99.90
24146;DHT22;12308;50.948;4.706;2023-03-31T09:51:45;14.50;99.90
24146;DHT22;12308;50.948;4.706;2023-03-31T09:54:20;14.70;99.90
24146;DHT22;12308;50.948;4.706;2023-03-31T09:56:49;14.80;99.90
24146;DHT22;12308;50.948;4.706;2023-03-31T09:59:32;14.90;99.90
24146;DHT22;12308;50.948;4.706;2023-03-31T10:02:01;14.90;99.90
24146;DHT22;12308;50.948;4.706;2023-03-31T10:04:33;14.90;99.90
24146;DHT22;12308;50.948;4.706;2023-03-31T10:07:00;14.80;99.90
24146;DHT22;12308;50.948;4.706;2023-03-31T10:09:31;14.80;99.90
24146;DHT22;12308;50.948;4.706;2023-03-31T10:12:21;14.70;99.90
24146;DHT22;12308;50.948;4.706;2023-03-31T10:14:51;14.60;99.90
24146;DHT22;12308;50.948;4.706;2023-03-31T10:17:24;14.70;99.90
24146;DHT22;12308;50.948;4.706;2023-03-31T10:19:58;14.40;99.90
24146;DHT22;12308;50.948;4.706;2023-03-31T10:22:32;14.30;99.90
24146;DHT22;12308;50.948;4.706;2023-03-31T10:25:15;14.30;99.90
24146;DHT22;12308;50.948;4.706;2023-03-31T10:27:44;14.30;99.90
24146;DHT22;12308;50.948;4.706;2023-03-31T10:30:26;14.30;99.90
24146;DHT22;12308;50.948;4.706;2023-03-31T10:32:55;14.30;99.90
24146;DHT22;12308;50.948;4.706;2023-03-31T10:35:41;14.40;99.90
24146;DHT22;12308;50.948;4.706;2023-03-31T10:38:13;14.50;99.90
24146;DHT22;12308;50.948;4.706;2023-03-31T10:40:53;14.70;99.90
24146;DHT22;12308;50.948;4.706;2023-03-31T10:43:42;14.80;99.90
24146;DHT22;12308;50.948;4.706;2023-03-31T10:46:12;14.80;99.90
24146;DHT22;12308;50.948;4.706;2023-03-31T10:48:39;14.70;99.90
24146;DHT22;12308;50.948;4.706;2023-03-31T10:51:25;14.70;99.90
24146;DHT22;12308;50.948;4.706;2023-03-31T10:53:52;14.60;99.90
24146;DHT22;12308;50.948;4.706;2023-03-31T10:56:42;14.70;99.90
24146;DHT22;12308;50.948;4.706;2023-03-31T11:02:12;14.80;99.90
24146;DHT22;12308;50.948;4.706;2023-03-31T11:07:27;14.90;99.90
24146;DHT22;12308;50.948;4.706;2023-03-31T11:32:39;14.60;99.90
24146;DHT22;12308;50.948;4.706;2023-03-31T11:38:11;14.70;99.90
24146;DHT22;12308;50.948;4.706;2023-03-31T11:43:49;14.70;99.90
24146;DHT22;12308;50.948;4.706;2023-03-31T11:46:20;14.80;99.90
24146;DHT22;12308;50.948;4.706;2023-03-31T11:48:59;15.00;99.90
24146;DHT22;12308;50.948;4.706;2023-03-31T11:52:15;15.10;99.90
24146;DHT22;12308;50.948;4.706;2023-03-31T11:54:40;15.30;99.90
24146;DHT22;12308;50.948;4.706;2023-03-31T11:57:20;15.40;99.90
24146;DHT22;12308;50.948;4.706;2023-03-31T11:59:51;15.20;99.90
24146;DHT22;12308;50.948;4.706;2023-03-31T12:02:26;15.30;99.90
24146;DHT22;12308;50.948;4.706;2023-03-31T12:04:56;15.20;99.90
24146;DHT22;12308;50.948;4.706;2023-03-31T12:10:16;15.20;99.90
24146;DHT22;12308;50.948;4.706;2023-03-31T12:12:53;15.20;99.90
24146;DHT22;12308;50.948;4.706;2023-03-31T12:15:36;15.10;99.90
24146;DHT22;12308;50.948;4.706;2023-03-31T12:18:13;15.00;99.90
24146;DHT22;12308;50.948;4.706;2023-03-31T12:20:44;14.70;99.90
24146;DHT22;12308;50.948;4.706;2023-03-31T12:23:15;14.70;99.90
24146;DHT22;12308;50.948;4.706;2023-03-31T12:28:12;14.30;99.90
24146;DHT22;12308;50.948;4.706;2023-03-31T12:30:40;14.10;99.90
24146;DHT22;12308;50.948;4.706;2023-03-31T12:36:06;13.70;99.90
24146;DHT22;12308;50.948;4.706;2023-03-31T12:46:58;13.20;99.90
24146;DHT22;12308;50.948;4.706;2023-03-31T12:49:51;13.30;99.90
24146;DHT22;12308;50.948;4.706;2023-03-31T13:01:05;13.90;99.90
24146;DHT22;12308;50.948;4.706;2023-03-31T13:03:39;14.20;99.90
24146;DHT22;12308;50.948;4.706;2023-03-31T13:06:09;14.30;99.90
24146;DHT22;12308;50.948;4.706;2023-03-31T13:11:45;14.10;99.90
24146;DHT22;12308;50.948;4.706;2023-03-31T13:16:45;13.90;99.90
24146;DHT22;12308;50.948;4.706;2023-03-31T13:19:23;14.00;99.90
24146;DHT22;12308;50.948;4.706;2023-03-31T13:21:59;14.00;99.90
24146;DHT22;12308;50.948;4.706;2023-03-31T13:24:27;14.30;99.90
24146;DHT22;12308;50.948;4.706;2023-03-31T13:26:54;14.20;99.90
24146;DHT22;12308;50.948;4.706;2023-03-31T13:29:42;14.10;99.90
24146;DHT22;12308;50.948;4.706;2023-03-31T13:40:31;13.80;99.90
24146;DHT22;12308;50.948;4.706;2023-03-31T14:05:32;13.60;99.90
24146;DHT22;12308;50.948;4.706;2023-03-31T14:08:02;13.40;99.90
24146;DHT22;12308;50.948;4.706;2023-03-31T14:10:31;13.30;99.90
24146;DHT22;12308;50.948;4.706;2023-03-31T14:15:36;13.10;99.90
24146;DHT22;12308;50.948;4.706;2023-03-31T14:18:04;13.10;99.90
24146;DHT22;12308;50.948;4.706;2023-03-31T14:23:20;13.00;99.90
24146;DHT22;12308;50.948;4.706;2023-03-31T14:25:56;12.90;99.90
24146;DHT22;12308;50.948;4.706;2023-03-31T14:31:43;12.70;99.90
24146;DHT22;12308;50.948;4.706;2023-03-31T14:37:05;12.90;99.90
24146;DHT22;12308;50.948;4.706;2023-03-31T14:39:37;12.90;99.90
24146;DHT22;12308;50.948;4.706;2023-03-31T14:42:13;12.90;99.90
24146;DHT22;12308;50.948;4.706;2023-03-31T14:44:41;13.00;99.90
24146;DHT22;12308;50.948;4.706;2023-03-31T14:47:21;13.20;99.90
24146;DHT22;12308;50.948;4.706;2023-03-31T14:49:47;13.40;99.90
24146;DHT22;12308;50.948;4.706;2023-03-31T14:54:40;13.20;99.90
24146;DHT22;12308;50.948;4.706;2023-03-31T14:57:10;13.20;99.90
24146;DHT22;12308;50.948;4.706;2023-03-31T14:59:37;13.20;99.90
24146;DHT22;12308;50.948;4.706;2023-03-31T15:02:04;13.20;99.90
24146;DHT22;12308;50.948;4.706;2023-03-31T15:04:35;13.30;99.90
24146;DHT22;12308;50.948;4.706;2023-03-31T15:07:02;13.40;99.90
24146;DHT22;12308;50.948;4.706;2023-03-31T15:09:32;13.40;99.90
24146;DHT22;12308;50.948;4.706;2023-03-31T15:12:07;13.30;99.90
24146;DHT22;12308;50.948;4.706;2023-03-31T15:14:41;13.20;99.90
24146;DHT22;12308;50.948;4.706;2023-03-31T15:17:24;13.20;99.90
24146;DHT22;12308;50.948;4.706;2023-03-31T15:19:58;13.10;99.90
24146;DHT22;12308;50.948;4.706;2023-03-31T15:22:27;13.10;99.90
24146;DHT22;12308;50.948;4.706;2023-03-31T15:24:55;12.90;99.90
24146;DHT22;12308;50.948;4.706;2023-03-31T15:27:35;13.10;99.90
24146;DHT22;12308;50.948;4.706;2023-03-31T15:30:05;13.00;99.90
24146;DHT22;12308;50.948;4.706;2023-03-31T15:32:34;12.90;99.90
24146;DHT22;12308;50.948;4.706;2023-03-31T15:35:01;12.80;99.90
24146;DHT22;12308;50.948;4.706;2023-03-31T15:37:42;12.90;99.90
24146;DHT22;12308;50.948;4.706;2023-03-31T15:40:21;13.00;99.90
24146;DHT22;12308;50.948;4.706;2023-03-31T15:42:47;13.00;99.90
24146;DHT22;12308;50.948;4.706;2023-03-31T15:48:02;13.10;99.90
24146;DHT22;12308;50.948;4.706;2023-03-31T15:50:28;13.10;99.90
24146;DHT22;12308;50.948;4.706;2023-03-31T15:52:55;13.30;99.90
24146;DHT22;12308;50.948;4.706;2023-03-31T15:57:49;13.20;99.90
24146;DHT22;12308;50.948;4.706;2023-03-31T16:00:40;13.20;99.90
24146;DHT22;12308;50.948;4.706;2023-03-31T16:03:23;13.00;99.90
24146;DHT22;12308;50.948;4.706;2023-03-31T16:05:54;12.90;99.90
24146;DHT22;12308;50.948;4.706;2023-03-31T16:11:04;12.80;99.90
24146;DHT22;12308;50.948;4.706;2023-03-31T16:13:32;12.90;99.90
24146;DHT22;12308;50.948;4.706;2023-03-31T16:15:58;12.80;99.90
24146;DHT22;12308;50.948;4.706;2023-03-31T16:18:31;12.90;99.90
24146;DHT22;12308;50.948;4.706;2023-03-31T16:21:01;13.00;99.90
24146;DHT22;12308;50.948;4.706;2023-03-31T16:23:30;13.00;99.90
24146;DHT22;12308;50.948;4.706;2023-03-31T16:25:57;12.90;99.90
24146;DHT22;12308;50.948;4.706;2023-03-31T16:28:26;12.80;99.90
24146;DHT22;12308;50.948;4.706;2023-03-31T16:30:52;12.80;99.90
24146;DHT22;12308;50.948;4.706;2023-03-31T16:33:20;12.70;99.90
24146;DHT22;12308;50.948;4.706;2023-03-31T16:35:50;12.60;99.90
24146;DHT22;12308;50.948;4.706;2023-03-31T16:38:19;12.50;99.90
24146;DHT22;12308;50.948;4.706;2023-03-31T16:40:47;12.40;99.90
24146;DHT22;12308;50.948;4.706;2023-03-31T16:45:49;12.20;99.90
24146;DHT22;12308;50.948;4.706;2023-03-31T16:48:17;12.20;99.90
24146;DHT22;12308;50.948;4.706;2023-03-31T16:50:48;12.20;99.90
24146;DHT22;12308;50.948;4.706;2023-03-31T16:53:16;12.20;99.90
24146;DHT22;12308;50.948;4.706;2023-03-31T16:55:43;12.10;99.90
24146;DHT22;12308;50.948;4.706;2023-03-31T16:58:09;12.10;99.90
24146;DHT22;12308;50.948;4.706;2023-03-31T17:00:35;12.10;99.90
24146;DHT22;12308;50.948;4.706;2023-03-31T17:03:04;12.00;99.90
24146;DHT22;12308;50.948;4.706;2023-03-31T17:05:30;12.00;99.90
24146;DHT22;12308;50.948;4.706;2023-03-31T17:07:57;12.00;99.90
24146;DHT22;12308;50.948;4.706;2023-03-31T17:10:23;12.00;99.90
24146;DHT22;12308;50.948;4.706;2023-03-31T17:12:49;12.10;99.90
24146;DHT22;12308;50.948;4.706;2023-03-31T17:15:15;12.00;99.90
24146;DHT22;12308;50.948;4.706;2023-03-31T17:17:41;12.10;99.90
24146;DHT22;12308;50.948;4.706;2023-03-31T17:20:07;11.90;99.90
24146;DHT22;12308;50.948;4.706;2023-03-31T17:22:33;12.00;99.90
24146;DHT22;12308;50.948;4.706;2023-03-31T17:24:59;12.00;99.90
24146;DHT22;12308;50.948;4.706;2023-03-31T17:27:26;12.10;99.90
24146;DHT22;12308;50.948;4.706;2023-03-31T17:29:52;12.10;99.90
24146;DHT22;12308;50.948;4.706;2023-03-31T17:32:18;12.10;99.90
24146;DHT22;12308;50.948;4.706;2023-03-31T17:34:44;12.10;99.90
24146;DHT22;12308;50.948;4.706;2023-03-31T17:37:13;12.10;99.90
24146;DHT22;12308;50.948;4.706;2023-03-31T17:39:38;12.00;99.90
24146;DHT22;12308;50.948;4.706;2023-03-31T17:42:04;12.00;99.90
24146;DHT22;12308;50.948;4.706;2023-03-31T17:44:30;12.10;99.90
24146;DHT22;12308;50.948;4.706;2023-03-31T17:46:55;12.10;99.90
24146;DHT22;12308;50.948;4.706;2023-03-31T17:49:22;12.10;99.90
24146;DHT22;12308;50.948;4.706;2023-03-31T17:51:48;12.00;99.90
24146;DHT22;12308;50.948;4.706;2023-03-31T17:54:14;12.00;99.90
24146;DHT22;12308;50.948;4.706;2023-03-31T17:56:39;11.90;99.90
24146;DHT22;12308;50.948;4.706;2023-03-31T17:59:06;11.90;99.90
24146;DHT22;12308;50.948;4.706;2023-03-31T18:01:31;11.80;99.90
24146;DHT22;12308;50.948;4.706;2023-03-31T18:03:57;11.80;99.90
24146;DHT22;12308;50.948;4.706;2023-03-31T18:06:23;11.60;99.90
24146;DHT22;12308;50.948;4.706;2023-03-31T18:08:49;11.60;99.90
24146;DHT22;12308;50.948;4.706;2023-03-31T18:11:16;11.60;99.90
24146;DHT22;12308;50.948;4.706;2023-03-31T18:13:42;11.60;99.90
24146;DHT22;12308;50.948;4.706;2023-03-31T18:16:09;11.60;99.90
24146;DHT22;12308;50.948;4.706;2023-03-31T18:18:36;11.60;99.90
24146;DHT22;12308;50.948;4.706;2023-03-31T18:21:08;11.50;99.90
24146;DHT22;12308;50.948;4.706;2023-03-31T18:23:35;11.50;99.90
24146;DHT22;12308;50.948;4.706;2023-03-31T18:26:04;11.50;99.90
24146;DHT22;12308;50.948;4.706;2023-03-31T18:28:29;11.40;99.90
24146;DHT22;12308;50.948;4.706;2023-03-31T18:30:55;11.40;99.90
24146;DHT22;12308;50.948;4.706;2023-03-31T18:33:21;11.40;99.90
24146;DHT22;12308;50.948;4.706;2023-03-31T18:35:46;11.40;99.90
24146;DHT22;12308;50.948;4.706;2023-03-31T18:38:12;11.40;99.90
24146;DHT22;12308;50.948;4.706;2023-03-31T18:40:38;11.30;99.90
24146;DHT22;12308;50.948;4.706;2023-03-31T18:43:04;11.30;99.90
24146;DHT22;12308;50.948;4.706;2023-03-31T18:45:30;11.30;99.90
24146;DHT22;12308;50.948;4.706;2023-03-31T18:47:56;11.30;99.90